Creve Coeur, Missouri
Current Conditions -  °F | °C
As of 12:51 PM on Wednesday 26 Nov 2014 (Local Time) from KSTL Reporting Station
Light Snow Light Snow  
Wind Chill: 28°   Ceiling: 2000
Heat Index: 35°   Visibility: 1mi
Dew Point: 31°   Wind: 9mph
Humidity: 85%   Direction: 130°SE
Pressure: 29.98"   Gusts: NA
Location:  38.66°N, 90.44°W
Report Text: KSTL 261851Z 13008KT 1SM R30R/5000V5500FT -SN BR FEW007 OVC020 02/M01 A2998 RMK AO2 SLP162 P0001 T00171006
Loading
Personal Weather Stations






























Interactive Weather Map New forecast layout! Learn more

10-Day Weather Forecast

Advertisements
Track Severe Weather on mobile